createdAt,value
2019-05-18T00:01:43.931Z,16.40
2019-05-18T00:04:19.647Z,16.40
2019-05-18T00:06:54.489Z,16.40
2019-05-18T00:09:29.252Z,16.40
2019-05-18T00:12:04.193Z,16.40
2019-05-18T00:14:38.960Z,16.30
2019-05-18T00:17:25.083Z,16.40
2019-05-18T00:19:50.226Z,16.40
2019-05-18T00:22:25.054Z,16.30
2019-05-18T00:24:59.843Z,16.20
2019-05-18T00:27:34.738Z,16.20
2019-05-18T00:30:10.071Z,16.20
2019-05-18T00:32:44.823Z,16.10
2019-05-18T00:35:19.595Z,16.00
2019-05-18T00:37:54.487Z,16.00
2019-05-18T00:40:29.332Z,16.00
2019-05-18T00:43:04.163Z,16.00
2019-05-18T00:45:39.031Z,16.00
2019-05-18T00:48:14.052Z,16.00
2019-05-18T00:50:48.810Z,16.00
2019-05-18T00:53:23.643Z,15.90
2019-05-18T00:55:58.419Z,15.90
2019-05-18T00:58:33.155Z,15.80
2019-05-18T01:01:08.145Z,15.60
2019-05-18T01:03:42.900Z,15.30
2019-05-18T01:06:17.811Z,15.10
2019-05-18T01:08:52.628Z,15.10
2019-05-18T01:11:28.171Z,15.30
2019-05-18T01:14:03.065Z,15.40
2019-05-18T01:16:37.993Z,15.50
2019-05-18T01:19:12.885Z,15.60
2019-05-18T01:21:47.731Z,15.70
2019-05-18T01:24:22.492Z,15.70
2019-05-18T01:26:57.382Z,15.70
2019-05-18T01:29:32.215Z,15.70
2019-05-18T01:32:07.147Z,15.70
2019-05-18T01:34:41.960Z,15.60
2019-05-18T01:37:16.718Z,15.50
2019-05-18T01:39:51.530Z,15.50
2019-05-18T01:42:26.291Z,15.50
2019-05-18T01:45:15.420Z,15.40
2019-05-18T01:47:37.747Z,15.00
2019-05-18T01:50:13.766Z,14.90
2019-05-18T01:52:48.523Z,14.70
2019-05-18T01:55:23.283Z,14.70
2019-05-18T01:57:58.047Z,14.80
2019-05-18T02:00:32.879Z,15.00
2019-05-18T02:03:07.795Z,15.20
2019-05-18T02:05:42.558Z,15.30
2019-05-18T02:08:17.458Z,15.30
2019-05-18T02:10:52.209Z,15.40
2019-05-18T02:13:27.024Z,15.40
2019-05-18T02:16:01.836Z,15.40
2019-05-18T02:18:36.587Z,15.40
2019-05-18T02:21:11.429Z,15.40
2019-05-18T02:23:47.249Z,15.40
2019-05-18T02:26:22.068Z,15.30
2019-05-18T02:28:56.780Z,15.40
2019-05-18T02:31:31.601Z,15.40
2019-05-18T02:34:06.383Z,15.30
2019-05-18T02:36:42.088Z,15.30
2019-05-18T02:39:16.882Z,15.30
2019-05-18T02:41:51.615Z,15.20
2019-05-18T02:44:26.344Z,15.20
2019-05-18T02:47:01.159Z,15.20
2019-05-18T02:49:36.001Z,15.20
2019-05-18T02:52:10.739Z,15.10
2019-05-18T02:54:45.456Z,15.10
2019-05-18T02:57:20.248Z,15.10
2019-05-18T02:59:55.044Z,15.00
2019-05-18T03:02:30.183Z,15.00
2019-05-18T03:05:05.336Z,14.90
2019-05-18T03:07:40.228Z,14.90
2019-05-18T03:10:16.624Z,14.90
2019-05-18T03:12:51.523Z,14.80
2019-05-18T03:15:26.392Z,14.80
2019-05-18T03:18:01.309Z,14.80
2019-05-18T03:20:36.037Z,14.80
2019-05-18T03:23:10.784Z,14.80
2019-05-18T03:25:45.838Z,14.80
2019-05-18T03:28:20.569Z,14.80
2019-05-18T03:30:55.378Z,14.70
2019-05-18T03:33:30.634Z,14.80
2019-05-18T03:36:05.724Z,14.80
2019-05-18T03:38:40.509Z,14.70
2019-05-18T03:41:15.309Z,14.60
2019-05-18T03:43:50.197Z,14.60
2019-05-18T03:46:25.015Z,14.60
2019-05-18T03:48:59.723Z,14.50
2019-05-18T03:51:34.509Z,14.60
2019-05-18T03:54:09.237Z,14.30
2019-05-18T03:56:44.087Z,14.20
2019-05-18T03:59:18.809Z,14.30
2019-05-18T04:01:53.545Z,14.30
2019-05-18T04:04:28.297Z,14.30
2019-05-18T04:07:03.033Z,14.20
2019-05-18T04:09:37.868Z,14.20
2019-05-18T04:12:12.683Z,14.20
2019-05-18T04:14:47.417Z,14.30
2019-05-18T04:17:22.132Z,14.20
2019-05-18T04:19:56.873Z,14.10
2019-05-18T04:22:31.583Z,14.10
2019-05-18T04:25:06.410Z,13.80
2019-05-18T04:27:42.093Z,13.90
2019-05-18T04:30:17.962Z,14.10
2019-05-18T04:32:52.776Z,14.10
2019-05-18T04:35:27.615Z,14.30
2019-05-18T04:38:03.341Z,14.30
2019-05-18T04:40:38.073Z,14.40
2019-05-18T04:43:12.805Z,14.60
2019-05-18T04:45:47.600Z,14.60
2019-05-18T04:48:23.295Z,14.60
2019-05-18T04:50:58.022Z,14.60
2019-05-18T04:53:32.829Z,14.60
2019-05-18T04:56:07.545Z,14.70
2019-05-18T04:58:42.363Z,14.70
2019-05-18T05:01:17.107Z,14.80
2019-05-18T05:03:51.836Z,14.80
2019-05-18T05:06:26.552Z,14.70
2019-05-18T05:09:01.364Z,14.80
2019-05-18T05:11:37.057Z,14.80
2019-05-18T05:14:11.994Z,14.80
2019-05-18T05:16:46.853Z,14.80
2019-05-18T05:19:21.650Z,14.80
2019-05-18T05:21:58.340Z,14.80
2019-05-18T05:24:33.121Z,14.80
2019-05-18T05:27:09.507Z,14.80
2019-05-18T05:29:44.240Z,14.70
2019-05-18T05:32:19.030Z,14.90
2019-05-18T05:34:53.833Z,14.80
2019-05-18T05:37:28.543Z,14.90
2019-05-18T05:40:03.442Z,15.00
2019-05-18T05:42:38.148Z,15.00
2019-05-18T05:45:12.953Z,15.10
2019-05-18T05:47:47.674Z,15.30
2019-05-18T05:50:34.731Z,15.20
2019-05-18T05:52:58.919Z,15.30
2019-05-18T05:55:33.874Z,15.30
2019-05-18T05:58:08.797Z,15.30
2019-05-18T06:00:43.528Z,15.30
2019-05-18T06:03:18.340Z,15.50
2019-05-18T06:05:54.079Z,15.60
2019-05-18T06:08:28.892Z,15.70
2019-05-18T06:11:03.627Z,15.70
2019-05-18T06:13:38.342Z,15.80
2019-05-18T06:16:13.304Z,15.80
2019-05-18T06:18:48.162Z,15.90
2019-05-18T06:21:24.959Z,16.00
2019-05-18T06:23:59.775Z,16.10
2019-05-18T06:26:34.580Z,16.10
2019-05-18T06:29:09.818Z,16.20
2019-05-18T06:31:44.713Z,16.20
2019-05-18T06:34:19.444Z,16.30
2019-05-18T06:36:56.506Z,16.30
2019-05-18T06:39:31.235Z,16.40
2019-05-18T06:42:06.235Z,16.10
2019-05-18T06:44:40.976Z,16.30
2019-05-18T06:47:15.766Z,16.20
2019-05-18T06:49:56.627Z,16.00
2019-05-18T06:52:31.416Z,16.10
2019-05-18T06:55:06.715Z,16.10
2019-05-18T06:57:42.181Z,16.20
2019-05-18T07:00:17.182Z,16.40
2019-05-18T07:02:51.895Z,16.40
2019-05-18T07:05:26.637Z,16.40
2019-05-18T07:08:01.596Z,16.40
2019-05-18T07:10:42.956Z,16.50
2019-05-18T07:13:19.075Z,16.70
2019-05-18T07:15:53.820Z,16.70
2019-05-18T07:18:30.164Z,16.70
2019-05-18T07:21:04.957Z,16.60
2019-05-18T07:23:39.663Z,16.90
2019-05-18T07:26:14.569Z,16.50
2019-05-18T07:28:49.289Z,16.70
2019-05-18T07:31:24.044Z,16.70
2019-05-18T07:33:59.727Z,16.70
2019-05-18T07:36:34.528Z,16.80
2019-05-18T07:39:09.311Z,16.80
2019-05-18T07:41:46.665Z,16.60
2019-05-18T07:44:20.580Z,16.70
2019-05-18T07:46:55.396Z,16.80
2019-05-18T07:49:30.140Z,16.90
2019-05-18T07:52:05.032Z,16.90
2019-05-18T07:54:39.801Z,16.80
2019-05-18T07:57:15.580Z,16.90
2019-05-18T07:59:50.411Z,16.80
2019-05-18T08:02:25.220Z,16.80
2019-05-18T08:05:00.021Z,16.90
2019-05-18T08:07:34.910Z,16.80
2019-05-18T08:10:10.487Z,17.00
2019-05-18T08:12:45.246Z,17.10
2019-05-18T08:15:20.132Z,16.80
2019-05-18T08:17:55.028Z,16.90
2019-05-18T08:20:29.763Z,17.10
2019-05-18T08:23:04.551Z,17.10
2019-05-18T08:25:39.451Z,17.20
2019-05-18T08:28:14.251Z,17.20
2019-05-18T08:30:49.100Z,17.30
2019-05-18T08:33:23.883Z,17.30
2019-05-18T08:35:58.620Z,17.20
2019-05-18T08:38:33.360Z,17.30
2019-05-18T08:41:08.088Z,17.40
2019-05-18T08:43:42.841Z,17.50
2019-05-18T08:46:17.611Z,17.50
2019-05-18T08:48:52.324Z,17.60
2019-05-18T08:51:27.164Z,17.60
2019-05-18T08:54:02.840Z,17.40
2019-05-18T08:56:38.656Z,17.50
2019-05-18T08:59:13.381Z,17.70
2019-05-18T09:01:48.121Z,17.80
2019-05-18T09:04:22.852Z,17.80
2019-05-18T09:06:57.588Z,17.80
2019-05-18T09:09:32.404Z,18.00
2019-05-18T09:12:07.138Z,18.20
2019-05-18T09:14:41.879Z,18.10
2019-05-18T09:17:16.832Z,18.10
2019-05-18T09:19:51.598Z,18.20
2019-05-18T09:22:26.412Z,18.40
2019-05-18T09:25:01.212Z,18.20
2019-05-18T09:27:36.132Z,18.00
2019-05-18T09:30:11.571Z,18.00
2019-05-18T09:32:46.554Z,18.30
2019-05-18T09:35:21.345Z,18.30
2019-05-18T09:37:56.097Z,18.40
2019-05-18T09:40:30.801Z,18.30
2019-05-18T09:43:05.811Z,18.50
2019-05-18T09:45:40.720Z,18.60
2019-05-18T09:48:15.847Z,18.70
2019-05-18T09:50:50.723Z,18.80
2019-05-18T09:53:25.456Z,18.80
2019-05-18T09:56:00.708Z,18.80
2019-05-18T09:58:35.504Z,18.70
2019-05-18T10:01:10.364Z,18.80
2019-05-18T10:03:45.136Z,18.60
2019-05-18T10:06:19.931Z,18.70
2019-05-18T10:08:56.345Z,19.00
2019-05-18T10:11:38.181Z,18.90
2019-05-18T10:14:07.730Z,18.90
2019-05-18T10:16:42.432Z,19.00
2019-05-18T10:19:17.231Z,19.10
2019-05-18T10:21:51.978Z,19.00
2019-05-18T10:24:26.709Z,19.00
2019-05-18T10:27:01.495Z,19.10
2019-05-18T10:29:36.241Z,19.20
2019-05-18T10:32:10.951Z,19.30
2019-05-18T10:34:45.688Z,19.60
2019-05-18T10:37:20.423Z,19.70
2019-05-18T10:39:55.228Z,19.80
2019-05-18T10:42:29.994Z,20.10
2019-05-18T10:45:05.458Z,20.10
2019-05-18T10:47:40.284Z,20.20
2019-05-18T10:50:15.326Z,20.10
2019-05-18T10:52:51.355Z,19.80
2019-05-18T10:55:26.188Z,19.90
2019-05-18T10:58:01.063Z,20.00
2019-05-18T11:00:36.037Z,20.40
2019-05-18T11:03:10.797Z,20.60
2019-05-18T11:05:45.544Z,20.60
2019-05-18T11:08:20.469Z,20.40
2019-05-18T11:10:57.098Z,20.60
2019-05-18T11:13:31.968Z,20.50
2019-05-18T11:16:06.922Z,20.60
2019-05-18T11:18:42.124Z,20.70
2019-05-18T11:21:16.917Z,20.80
2019-05-18T11:23:51.664Z,20.80
2019-05-18T11:26:26.375Z,20.80
2019-05-18T11:29:01.470Z,20.90
2019-05-18T11:31:58.329Z,20.80
2019-05-18T11:34:38.005Z,20.50
2019-05-18T11:37:13.220Z,20.60
2019-05-18T11:39:48.001Z,20.60
2019-05-18T11:42:29.455Z,20.90
2019-05-18T11:45:09.036Z,20.80
2019-05-18T11:47:44.075Z,20.90
2019-05-18T11:50:19.156Z,21.00
2019-05-18T11:52:54.057Z,21.00
2019-05-18T11:55:28.924Z,21.10
2019-05-18T11:58:23.156Z,21.20
2019-05-18T12:00:58.035Z,21.10
2019-05-18T12:03:38.020Z,21.00
2019-05-18T12:06:12.776Z,21.00
2019-05-18T12:08:47.496Z,21.20
2019-05-18T12:11:26.260Z,21.10
2019-05-18T12:14:05.916Z,21.10
2019-05-18T12:17:02.173Z,21.20
2019-05-18T12:19:36.619Z,21.00
2019-05-18T12:22:12.271Z,21.00
2019-05-18T12:27:55.931Z,21.10
2019-05-18T12:30:32.416Z,21.20
2019-05-18T12:33:07.345Z,21.20
2019-05-18T12:35:47.164Z,21.10
2019-05-18T12:38:28.107Z,21.00
2019-05-18T12:41:02.979Z,21.00
2019-05-18T12:43:37.881Z,21.10
2019-05-18T12:46:18.252Z,21.20
2019-05-18T12:49:20.975Z,21.40
2019-05-18T12:52:18.007Z,21.40
2019-05-18T12:55:08.020Z,21.40
2019-05-18T12:57:44.352Z,21.40
2019-05-18T13:00:21.269Z,21.40
2019-05-18T13:02:56.220Z,21.40
2019-05-18T13:05:35.090Z,21.30
2019-05-18T13:08:13.774Z,21.10
2019-05-18T13:10:48.528Z,21.10
2019-05-18T13:13:23.313Z,21.10
2019-05-18T13:16:02.795Z,21.20
2019-05-18T13:18:40.984Z,21.20
2019-05-18T13:21:15.731Z,21.30
2019-05-18T13:23:50.512Z,21.40
2019-05-18T13:26:25.294Z,21.40
2019-05-18T13:28:59.993Z,21.40
2019-05-18T13:31:34.740Z,21.40
2019-05-18T13:34:09.739Z,21.30
2019-05-18T13:36:44.548Z,21.50
2019-05-18T13:39:19.301Z,21.80
2019-05-18T13:41:54.059Z,22.10
2019-05-18T13:44:28.768Z,22.00
2019-05-18T13:47:03.525Z,21.80
2019-05-18T13:49:38.313Z,22.00
2019-05-18T13:52:13.141Z,22.00
2019-05-18T13:55:02.239Z,22.20
2019-05-18T13:57:24.388Z,22.10
2019-05-18T13:59:59.567Z,22.20
2019-05-18T14:02:35.010Z,22.30
2019-05-18T14:05:10.354Z,22.10
2019-05-18T14:07:45.155Z,22.00
2019-05-18T14:10:20.148Z,22.00
2019-05-18T14:12:54.869Z,21.90
2019-05-18T14:15:29.606Z,21.90
2019-05-18T14:18:04.535Z,22.00
2019-05-18T14:20:44.567Z,22.10
2019-05-18T14:23:27.800Z,22.10
2019-05-18T14:26:05.463Z,22.10
2019-05-18T14:28:40.448Z,22.30
2019-05-18T14:31:22.533Z,22.20
2019-05-18T14:33:57.656Z,22.40
2019-05-18T14:36:32.383Z,22.50
2019-05-18T14:39:07.330Z,22.50
2019-05-18T14:41:42.667Z,22.60
2019-05-18T14:44:17.591Z,22.60
2019-05-18T14:46:54.078Z,22.60
2019-05-18T14:49:31.970Z,22.60
2019-05-18T14:52:11.830Z,22.50
2019-05-18T14:54:44.888Z,22.50
2019-05-18T14:57:19.629Z,22.30
2019-05-18T14:59:54.382Z,22.30
2019-05-18T15:02:29.119Z,22.30
2019-05-18T15:05:04.181Z,22.30
2019-05-18T15:07:38.910Z,22.30
2019-05-18T15:10:13.906Z,22.30
2019-05-18T15:12:48.726Z,22.10
2019-05-18T15:15:23.553Z,22.10
2019-05-18T15:17:58.312Z,21.70
2019-05-18T15:20:33.173Z,21.00
2019-05-18T15:23:08.045Z,20.70
2019-05-18T15:25:50.821Z,20.30
2019-05-18T15:28:19.415Z,20.20
2019-05-18T15:30:54.345Z,19.90
2019-05-18T15:33:29.100Z,19.70
2019-05-18T15:36:03.989Z,19.70
2019-05-18T15:38:38.885Z,19.60
2019-05-18T15:41:13.625Z,19.30
2019-05-18T15:43:48.484Z,19.20
2019-05-18T15:46:23.287Z,19.10
2019-05-18T15:48:58.880Z,19.10
2019-05-18T15:51:33.970Z,18.90
2019-05-18T15:54:08.889Z,18.80
2019-05-18T15:56:44.310Z,18.40
2019-05-18T15:59:19.353Z,18.30
2019-05-18T16:01:54.271Z,18.30
2019-05-18T16:04:29.144Z,18.30
2019-05-18T16:07:04.026Z,18.30
2019-05-18T16:09:38.743Z,18.30
2019-05-18T16:12:13.472Z,18.30
2019-05-18T16:14:48.187Z,18.30
2019-05-18T16:17:39.473Z,18.00
2019-05-18T16:20:11.939Z,17.60
2019-05-18T16:22:46.780Z,17.30
2019-05-18T16:25:22.479Z,17.20
2019-05-18T16:27:58.628Z,17.30
2019-05-18T16:30:33.548Z,16.70
2019-05-18T16:33:08.432Z,16.90
2019-05-18T16:35:43.251Z,16.60
2019-05-18T16:38:18.064Z,16.70
2019-05-18T16:40:53.172Z,16.70
2019-05-18T16:43:28.324Z,16.50
2019-05-18T16:46:03.052Z,16.60
2019-05-18T16:48:39.509Z,16.50
2019-05-18T16:51:14.632Z,16.40
2019-05-18T16:53:50.311Z,16.30
2019-05-18T16:56:34.914Z,16.20
2019-05-18T16:59:01.604Z,16.30
2019-05-18T17:01:36.317Z,16.20
2019-05-18T17:04:11.160Z,16.20
2019-05-18T17:06:46.086Z,16.20
2019-05-18T17:09:20.830Z,16.10
2019-05-18T17:11:55.751Z,16.00
2019-05-18T17:14:32.142Z,16.00
2019-05-18T17:17:07.124Z,16.00
2019-05-18T17:19:41.940Z,15.90
2019-05-18T17:22:16.812Z,16.00
2019-05-18T17:24:52.066Z,16.10
2019-05-18T17:27:27.916Z,16.20
2019-05-18T17:30:02.776Z,16.00
2019-05-18T17:32:37.748Z,16.10
2019-05-18T17:35:13.943Z,16.40
2019-05-18T17:37:48.711Z,16.30
2019-05-18T17:40:23.674Z,16.40
2019-05-18T17:42:58.456Z,16.50
2019-05-18T17:45:33.275Z,16.50
2019-05-18T17:48:08.142Z,16.50
2019-05-18T17:50:42.977Z,16.60
2019-05-18T17:53:17.881Z,16.60
2019-05-18T17:55:52.680Z,16.70
2019-05-18T17:58:27.626Z,16.70
2019-05-18T18:01:02.382Z,16.80
2019-05-18T18:03:37.274Z,16.90
2019-05-18T18:06:18.378Z,17.00
2019-05-18T18:08:58.737Z,17.00
2019-05-18T18:11:33.456Z,17.10
2019-05-18T18:14:08.481Z,17.10
2019-05-18T18:16:43.428Z,17.10
2019-05-18T18:19:18.269Z,17.00
2019-05-18T18:21:53.189Z,17.10
2019-05-18T18:24:27.996Z,16.90
2019-05-18T18:27:03.166Z,16.80
2019-05-18T18:29:46.433Z,16.90
2019-05-18T18:32:29.163Z,17.00
2019-05-18T18:35:05.418Z,17.20
2019-05-18T18:37:40.932Z,17.10
2019-05-18T18:40:15.893Z,17.10
2019-05-18T18:42:50.924Z,17.00
2019-05-18T18:45:29.937Z,17.00
2019-05-18T18:48:05.448Z,17.00
2019-05-18T18:50:40.257Z,17.00
2019-05-18T18:53:14.996Z,17.00
2019-05-18T18:55:54.501Z,17.00
2019-05-18T18:58:31.121Z,17.10
2019-05-18T19:01:05.932Z,17.10
2019-05-18T19:03:40.648Z,17.10
2019-05-18T19:06:15.684Z,17.20
2019-05-18T19:08:50.519Z,17.10
2019-05-18T19:11:25.393Z,17.10
2019-05-18T19:14:00.180Z,17.10
2019-05-18T19:16:34.921Z,17.00
2019-05-18T19:19:09.696Z,17.00
2019-05-18T19:21:44.676Z,17.20
2019-05-18T19:24:19.555Z,17.10
2019-05-18T19:26:54.492Z,17.20
2019-05-18T19:29:29.372Z,17.20
2019-05-18T19:32:04.116Z,17.20
2019-05-18T19:34:38.860Z,17.20
2019-05-18T19:37:13.620Z,17.10
2019-05-18T19:39:48.425Z,17.00
2019-05-18T19:42:23.140Z,17.10
2019-05-18T19:44:57.956Z,17.10
2019-05-18T19:47:33.012Z,17.00
2019-05-18T19:50:09.893Z,17.00
2019-05-18T19:55:44.355Z,17.00
2019-05-18T19:58:22.638Z,17.00
2019-05-18T20:03:51.834Z,17.00
2019-05-18T20:06:27.316Z,16.80
2019-05-18T20:09:03.975Z,16.70
2019-05-18T20:11:40.408Z,16.80
2019-05-18T20:14:15.324Z,16.90
2019-05-18T20:16:52.149Z,16.90
2019-05-18T20:19:38.606Z,16.70
2019-05-18T20:22:04.631Z,16.50
2019-05-18T20:24:39.475Z,16.60
2019-05-18T20:27:14.220Z,16.70
2019-05-18T20:29:48.959Z,16.80
2019-05-18T20:32:24.180Z,16.80
2019-05-18T20:34:59.290Z,16.80
2019-05-18T20:37:36.075Z,16.80
2019-05-18T20:40:11.569Z,16.70
2019-05-18T20:42:48.575Z,16.70
2019-05-18T20:45:23.921Z,16.70
2019-05-18T20:48:00.355Z,16.60
2019-05-18T20:50:35.730Z,16.40
2019-05-18T20:53:13.899Z,16.10
2019-05-18T20:55:48.844Z,16.20
2019-05-18T20:58:46.073Z,16.00
2019-05-18T21:01:27.268Z,16.10
2019-05-18T21:04:02.782Z,16.40
2019-05-18T21:06:39.011Z,16.40
2019-05-18T21:09:15.547Z,16.50
2019-05-18T21:11:53.952Z,16.50
2019-05-18T21:14:28.800Z,16.40
2019-05-18T21:17:04.588Z,16.50
2019-05-18T21:19:39.496Z,16.50
2019-05-18T21:22:15.375Z,16.40
2019-05-18T21:24:52.135Z,16.40
2019-05-18T21:27:26.884Z,16.50
2019-05-18T21:30:01.741Z,16.40
2019-05-18T21:32:36.495Z,16.40
2019-05-18T21:35:11.422Z,16.50
2019-05-18T21:37:46.296Z,16.40
2019-05-18T21:40:21.127Z,16.50
2019-05-18T21:42:57.969Z,16.50
2019-05-18T21:45:32.775Z,16.50
2019-05-18T21:48:07.503Z,16.40
2019-05-18T21:50:43.312Z,16.50
2019-05-18T21:53:18.111Z,16.40
2019-05-18T21:55:53.041Z,16.40
2019-05-18T21:58:27.788Z,16.20
2019-05-18T22:01:02.776Z,16.10
2019-05-18T22:03:37.581Z,16.00
2019-05-18T22:06:12.479Z,16.00
2019-05-18T22:08:47.494Z,16.10
2019-05-18T22:11:22.250Z,16.10
2019-05-18T22:13:56.979Z,15.80
2019-05-18T22:16:31.882Z,15.60
2019-05-18T22:19:06.640Z,15.50
2019-05-18T22:21:41.531Z,15.30
2019-05-18T22:24:16.263Z,15.50
2019-05-18T22:26:50.983Z,15.70
2019-05-18T22:29:26.205Z,15.80
2019-05-18T22:32:01.747Z,15.80
2019-05-18T22:34:36.489Z,15.80
2019-05-18T22:37:11.219Z,15.60
2019-05-18T22:39:45.928Z,15.80
2019-05-18T22:42:20.656Z,15.90
2019-05-18T22:44:55.384Z,15.90
2019-05-18T22:47:30.112Z,15.90
2019-05-18T22:50:05.179Z,15.70
2019-05-18T22:52:39.916Z,15.80
2019-05-18T22:55:15.179Z,15.80
2019-05-18T22:57:52.645Z,15.80
2019-05-18T23:00:27.457Z,15.70
2019-05-18T23:03:02.299Z,15.60
2019-05-18T23:05:37.011Z,15.70
2019-05-18T23:08:11.765Z,15.60
2019-05-18T23:10:46.471Z,15.70
2019-05-18T23:13:22.276Z,15.60
2019-05-18T23:15:57.008Z,15.70
2019-05-18T23:18:31.956Z,15.60
2019-05-18T23:21:06.729Z,15.70
2019-05-18T23:23:41.547Z,15.60
2019-05-18T23:26:16.302Z,15.60
2019-05-18T23:28:52.571Z,15.50
2019-05-18T23:31:27.335Z,15.50
2019-05-18T23:34:02.097Z,15.50
2019-05-18T23:36:36.915Z,15.50
2019-05-18T23:39:11.655Z,15.50
2019-05-18T23:41:46.455Z,15.30
2019-05-18T23:44:21.272Z,15.40
2019-05-18T23:46:55.999Z,15.30
2019-05-18T23:49:30.808Z,15.20
2019-05-18T23:52:05.727Z,15.30
2019-05-18T23:54:40.453Z,15.40
2019-05-18T23:57:15.338Z,15.50
2019-05-18T23:59:50.088Z,15.50
